Main page
METAR-TAF:

METAR-TAF

Airports :

Pyongyang Sunan International Airport

Pyongyang, North Korea

latitude: 39-02N, longitude: 125-47E, elevation: 36 m

METAR: missing

Time: 10:00 (01:30 UTC)

Forecast

The report was made 4 hours and 20 minutes ago, at 21:10 UTC
Forecast valid from 19 at 00 UTC to 19 at 24 UTC
Wind 6 kt from the North
Visibility 10 km or more
no clouds below 1500 m and no cumulonimbus

TAF: ZKPY 182110Z 1900/1924 36003MPS CAVOK TX18/1906Z TN04/1921Z

Weather observations and forecasts of more than 4000 airports (METAR and TAF reports).

The available stations are represented by yellow and red dots on the map.

Hover mouse over dot to see the name of the station.

Then click to see weather observations and forecasts.

To change the map : click on the green buttons with a black cross to zoom in, on the green button with a dash to zoom out, or on the green arrows for adjacent maps.


METAR-TAF: